F\v Tenia — FPMH — position and weather

sailwx.info

Track history (hours):
 
Tides and Currents Weather Stations Pressure Air Temp Water Temp Dewpoint Dewpoint Depression Visibility Wind Speed Wind Dir Waves Ship Positions

F\v Tenia

Last reported at 2017-Feb-19 03:33 UTC. Time now 2017-Feb-21 01:17 UTC.
Position N 44°04' W 002°01'.

Length 22 m; draft 4 m.

Type: Fishing. MMSI: 227575000.

Date/timePositionNaut miles runAvg speedWind from/ knotsBaromVisibWave heightAir tempDewpointWater temp
2017-Feb-19 03:33N 44°04' W 002°01'9 8.7
2017-Feb-19 02:33N 44°12' W 002°02'9 8.7
2017-Feb-19 01:29N 44°22' W 002°03'8 8.6
2017-Feb-19 00:33N 44°30' W 002°04'6 5.5
2017-Feb-18 23:33N 44°35' W 002°03'1 0.7
2017-Feb-18 22:33N 44°36' W 002°03'1 0.7
2017-Feb-18 21:26N 44°36' W 002°02'1 1.0
2017-Feb-18 20:33N 44°37' W 002°02'1 0.8
2017-Feb-18 19:15N 44°38' W 002°01'1 0.8
2017-Feb-18 18:33N 44°38' W 002°01'0 0.3
2017-Feb-18 17:33N 44°38' W 002°00'1 0.7
2017-Feb-18 16:33N 44°39' W 002°00'3 0.5
2017-Feb-18 10:06N 44°38' W 002°05'0 0.2
2017-Feb-18 09:33N 44°38' W 002°05'0 0.4
2017-Feb-18 08:31N 44°38' W 002°04'0 0.4
2017-Feb-18 07:33N 44°39' W 002°04'0 0.3
2017-Feb-18 06:33N 44°39' W 002°03'1 1.2
2017-Feb-18 05:33N 44°38' W 002°04'1 1.2
2017-Feb-18 04:33N 44°38' W 002°02'3 2.6
2017-Feb-18 03:33N 44°40' W 002°02'25 1.9
2017-Feb-17 14:21N 45°05' W 002°02'3 0.2
2017-Feb-17 01:29N 45°06' W 001°58'5 0.4
2017-Feb-16 11:27N 45°05' W 002°06'2 2.6
2017-Feb-16 10:33N 45°05' W 002°09'1 0.6
2017-Feb-16 09:32N 45°05' W 002°08'1 0.6
2017-Feb-16 08:33N 45°05' W 002°07'0 0.5
2017-Feb-16 07:33N 45°05' W 002°07'1 0.8
2017-Feb-16 06:31N 45°05' W 002°06'1 0.5
2017-Feb-16 05:33N 45°06' W 002°06'0 0.2
2017-Feb-16 04:33N 45°05' W 002°06'1 1.2
2017-Feb-16 03:33N 45°05' W 002°07'0 0.0
2017-Feb-15 08:12N 45°05' W 002°07'2 3.4
2017-Feb-15 07:32N 45°05' W 002°10'4 3.9
2017-Feb-15 06:33N 45°05' W 002°04'22 6.7
2017-Feb-15 03:18N 44°43' W 002°07'7 8.9
2017-Feb-15 02:33N 44°37' W 002°07'9 8.8
2017-Feb-15 01:33N 44°28' W 002°06'10 9.0
2017-Feb-15 00:23N 44°17' W 002°05'8 9.2
2017-Feb-14 23:33N 44°10' W 002°03'13 0.9
2017-Feb-14 09:33N 43°57' W 002°01'44 8.8
2017-Feb-14 04:30N 44°41' W 002°07'  
2017-Feb-10 10:33N 43°21' W 001°56'9 8.9
2017-Feb-10 09:33N 43°30' W 001°57'  
Track history (hours):
 
Tides and Currents Weather Stations Pressure Air Temp Water Temp Dewpoint Dewpoint Depression Visibility Wind Speed Wind Dir Waves Ship Positions

F\v Tenia

Last reported at 2017-Feb-19 03:33 UTC. Time now 2017-Feb-21 01:17 UTC.
Position N 44°04' W 002°01'.

Length 22 m; draft 4 m.

Type: Fishing. MMSI: 227575000.

Date/timePositionNaut miles runAvg speedWind from/ knotsBaromVisibWave heightAir tempDewpointWater temp
2017-Feb-19 03:33N 44°04' W 002°01'9 8.7
2017-Feb-19 02:33N 44°12' W 002°02'9 8.7
2017-Feb-19 01:29N 44°22' W 002°03'8 8.6
2017-Feb-19 00:33N 44°30' W 002°04'6 5.5
2017-Feb-18 23:33N 44°35' W 002°03'1 0.7
2017-Feb-18 22:33N 44°36' W 002°03'1 0.7
2017-Feb-18 21:26N 44°36' W 002°02'1 1.0
2017-Feb-18 20:33N 44°37' W 002°02'1 0.8
2017-Feb-18 19:15N 44°38' W 002°01'1 0.8
2017-Feb-18 18:33N 44°38' W 002°01'0 0.3
2017-Feb-18 17:33N 44°38' W 002°00'1 0.7
2017-Feb-18 16:33N 44°39' W 002°00'3 0.5
2017-Feb-18 10:06N 44°38' W 002°05'0 0.2
2017-Feb-18 09:33N 44°38' W 002°05'0 0.4
2017-Feb-18 08:31N 44°38' W 002°04'0 0.4
2017-Feb-18 07:33N 44°39' W 002°04'0 0.3
2017-Feb-18 06:33N 44°39' W 002°03'1 1.2
2017-Feb-18 05:33N 44°38' W 002°04'1 1.2
2017-Feb-18 04:33N 44°38' W 002°02'3 2.6
2017-Feb-18 03:33N 44°40' W 002°02'25 1.9
2017-Feb-17 14:21N 45°05' W 002°02'3 0.2
2017-Feb-17 01:29N 45°06' W 001°58'5 0.4
2017-Feb-16 11:27N 45°05' W 002°06'2 2.6
2017-Feb-16 10:33N 45°05' W 002°09'1 0.6
2017-Feb-16 09:32N 45°05' W 002°08'1 0.6
2017-Feb-16 08:33N 45°05' W 002°07'0 0.5
2017-Feb-16 07:33N 45°05' W 002°07'1 0.8
2017-Feb-16 06:31N 45°05' W 002°06'1 0.5
2017-Feb-16 05:33N 45°06' W 002°06'0 0.2
2017-Feb-16 04:33N 45°05' W 002°06'1 1.2
2017-Feb-16 03:33N 45°05' W 002°07'0 0.0
2017-Feb-15 08:12N 45°05' W 002°07'2 3.4
2017-Feb-15 07:32N 45°05' W 002°10'4 3.9
2017-Feb-15 06:33N 45°05' W 002°04'22 6.7
2017-Feb-15 03:18N 44°43' W 002°07'7 8.9
2017-Feb-15 02:33N 44°37' W 002°07'9 8.8
2017-Feb-15 01:33N 44°28' W 002°06'10 9.0
2017-Feb-15 00:23N 44°17' W 002°05'8 9.2
2017-Feb-14 23:33N 44°10' W 002°03'13 0.9
2017-Feb-14 09:33N 43°57' W 002°01'44 8.8
2017-Feb-14 04:30N 44°41' W 002°07'  
2017-Feb-10 10:33N 43°21' W 001°56'9 8.9
2017-Feb-10 09:33N 43°30' W 001°57'  

Dump ship's entire track history